DLH05M EDDM-LFMN
Flight info
| Callsign | DLH05M |
|---|---|
| Flight time | 1h 5m |
| Altitude | 33000 |
| Route | TURBU Y107 TOBSO DCT BAKOR DCT RENTA DCT ATPED DCT LUSIL DCT EVANO DCT ENOBA Z185 BORDI |
| Aircraft | A346/H-SDE2E3FGHIJ3J4J5M1RWXY/LB1D1 |
Departure
| Time | 2026-05-06 13:27 |
|---|---|
| Airport | Munich Airport (EDDM) |
Arrival
| Time | 2026-05-06 14:32 |
|---|---|
| Airport | Nice-Côte d'Azur Airport (LFMN) |
| Time | Latitude | Longitude | Altitude | Speed | Heading |
|---|---|---|---|---|---|
| 2026-05-06 12:59 | 48.35308 | 11.79363 | 1494 ft | 0 kts | 262° |
| 2026-05-06 13:12 | 48.35312 | 11.79397 | 1477 ft | 4 kts | 255° |
| 2026-05-06 13:13 | 48.35322 | 11.79433 | 1477 ft | 4 kts | 239° |
| 2026-05-06 13:13 | 48.35337 | 11.79460 | 1477 ft | 4 kts | 215° |
| 2026-05-06 13:13 | 48.35355 | 11.79471 | 1477 ft | 4 kts | 180° |
| 2026-05-06 13:13 | 48.35360 | 11.79470 | 1477 ft | 0 kts | 174° |
| 2026-05-06 13:16 | 48.35335 | 11.79474 | 1477 ft | 8 kts | 174° |
| 2026-05-06 13:16 | 48.35269 | 11.79486 | 1485 ft | 11 kts | 173° |
| 2026-05-06 13:16 | 48.35185 | 11.79500 | 1479 ft | 13 kts | 173° |
| 2026-05-06 13:17 | 48.35090 | 11.79517 | 1485 ft | 13 kts | 173° |
| 2026-05-06 13:17 | 48.35012 | 11.79531 | 1484 ft | 10 kts | 173° |
| 2026-05-06 13:17 | 48.34954 | 11.79541 | 1487 ft | 7 kts | 173° |
| 2026-05-06 13:17 | 48.34920 | 11.79547 | 1480 ft | 3 kts | 173° |
| 2026-05-06 13:18 | 48.34906 | 11.79549 | 1480 ft | 0 kts | 173° |
| 2026-05-06 13:18 | 48.34905 | 11.79549 | 1481 ft | 0 kts | 173° |
| 2026-05-06 13:19 | 48.34884 | 11.79553 | 1487 ft | 6 kts | 173° |
| 2026-05-06 13:19 | 48.34827 | 11.79561 | 1492 ft | 8 kts | 184° |
| 2026-05-06 13:19 | 48.34785 | 11.79495 | 1482 ft | 11 kts | 257° |
| 2026-05-06 13:19 | 48.34776 | 11.79371 | 1490 ft | 13 kts | 264° |
| 2026-05-06 13:20 | 48.34765 | 11.79222 | 1487 ft | 16 kts | 263° |
| 2026-05-06 13:20 | 48.34751 | 11.79043 | 1480 ft | 19 kts | 263° |
| 2026-05-06 13:20 | 48.34736 | 11.78837 | 1481 ft | 21 kts | 263° |
| 2026-05-06 13:20 | 48.34719 | 11.78612 | 1485 ft | 22 kts | 263° |
| 2026-05-06 13:21 | 48.34700 | 11.78369 | 1484 ft | 24 kts | 263° |
| 2026-05-06 13:21 | 48.34680 | 11.78111 | 1488 ft | 25 kts | 263° |
| 2026-05-06 13:21 | 48.34662 | 11.77874 | 1494 ft | 22 kts | 263° |
| 2026-05-06 13:21 | 48.34644 | 11.77647 | 1486 ft | 22 kts | 263° |
| 2026-05-06 13:22 | 48.34626 | 11.77414 | 1483 ft | 24 kts | 263° |
| 2026-05-06 13:22 | 48.34606 | 11.77158 | 1494 ft | 25 kts | 263° |
| 2026-05-06 13:22 | 48.34585 | 11.76887 | 1484 ft | 27 kts | 263° |
| 2026-05-06 13:22 | 48.34563 | 11.76601 | 1483 ft | 28 kts | 263° |
| 2026-05-06 13:23 | 48.34542 | 11.76327 | 1491 ft | 25 kts | 263° |
| 2026-05-06 13:23 | 48.34523 | 11.76079 | 1490 ft | 24 kts | 263° |
| 2026-05-06 13:23 | 48.34503 | 11.75822 | 1488 ft | 24 kts | 263° |
| 2026-05-06 13:23 | 48.34483 | 11.75560 | 1484 ft | 26 kts | 263° |
| 2026-05-06 13:24 | 48.34464 | 11.75304 | 1479 ft | 22 kts | 263° |
| 2026-05-06 13:24 | 48.34445 | 11.75113 | 1483 ft | 16 kts | 246° |
| 2026-05-06 13:24 | 48.34350 | 11.75070 | 1489 ft | 17 kts | 172° |
| 2026-05-06 13:24 | 48.34226 | 11.75092 | 1485 ft | 19 kts | 173° |
| 2026-05-06 13:25 | 48.34122 | 11.75111 | 1488 ft | 8 kts | 173° |
| 2026-05-06 13:25 | 48.34076 | 11.75150 | 1480 ft | 8 kts | 113° |
| 2026-05-06 13:25 | 48.34075 | 11.75217 | 1482 ft | 0 kts | 80° |
| 2026-05-06 13:25 | 48.34075 | 11.75221 | 1482 ft | 4 kts | 80° |
| 2026-05-06 13:26 | 48.34108 | 11.75591 | 1483 ft | 70 kts | 84° |
| 2026-05-06 13:26 | 48.34187 | 11.76644 | 1494 ft | 130 kts | 83° |
| 2026-05-06 13:26 | 48.34306 | 11.78260 | 1521 ft | 176 kts | 82° |
| 2026-05-06 13:26 | 48.34441 | 11.80133 | 2075 ft | 181 kts | 83° |
| 2026-05-06 13:27 | 48.34584 | 11.82033 | 2772 ft | 183 kts | 83° |
| 2026-05-06 13:27 | 48.34727 | 11.83947 | 3421 ft | 187 kts | 83° |
| 2026-05-06 13:27 | 48.34880 | 11.85961 | 3838 ft | 201 kts | 83° |
| 2026-05-06 13:27 | 48.35049 | 11.88145 | 4193 ft | 220 kts | 83° |
| 2026-05-06 13:28 | 48.35233 | 11.90494 | 4612 ft | 236 kts | 83° |
| 2026-05-06 13:28 | 48.35424 | 11.92992 | 5310 ft | 242 kts | 88° |
| 2026-05-06 13:28 | 48.35136 | 11.95470 | 6050 ft | 244 kts | 119° |
| 2026-05-06 13:28 | 48.34042 | 11.97415 | 6772 ft | 246 kts | 143° |
| 2026-05-06 13:29 | 48.32680 | 11.98991 | 7590 ft | 249 kts | 145° |
| 2026-05-06 13:29 | 48.31296 | 12.00583 | 8436 ft | 252 kts | 145° |
| 2026-05-06 13:29 | 48.29839 | 12.02051 | 9298 ft | 252 kts | 159° |
| 2026-05-06 13:29 | 48.28152 | 12.02691 | 10098 ft | 253 kts | 179° |
| 2026-05-06 13:30 | 48.26347 | 12.02654 | 10640 ft | 267 kts | 184° |
| 2026-05-06 13:30 | 48.24429 | 12.02522 | 11145 ft | 285 kts | 185° |
| 2026-05-06 13:30 | 48.22388 | 12.02380 | 11650 ft | 303 kts | 185° |
| 2026-05-06 13:30 | 48.20218 | 12.02226 | 12141 ft | 321 kts | 186° |
| 2026-05-06 13:31 | 48.17932 | 12.01892 | 12628 ft | 338 kts | 188° |
| 2026-05-06 13:31 | 48.15535 | 12.01476 | 13085 ft | 356 kts | 189° |
| 2026-05-06 13:31 | 48.13030 | 12.01042 | 13668 ft | 367 kts | 189° |
| 2026-05-06 13:31 | 48.10510 | 12.00614 | 14464 ft | 370 kts | 188° |
| 2026-05-06 13:32 | 48.07944 | 12.00185 | 15320 ft | 372 kts | 188° |
| 2026-05-06 13:32 | 48.05366 | 11.99759 | 16200 ft | 374 kts | 188° |
| 2026-05-06 13:32 | 48.02763 | 11.99330 | 17035 ft | 378 kts | 188° |
| 2026-05-06 13:32 | 48.00138 | 11.98902 | 17840 ft | 381 kts | 188° |
| 2026-05-06 13:33 | 47.97495 | 11.98472 | 18578 ft | 384 kts | 188° |
| 2026-05-06 13:33 | 47.94831 | 11.98041 | 19273 ft | 387 kts | 188° |
| 2026-05-06 13:33 | 47.92138 | 11.97604 | 19959 ft | 390 kts | 188° |
| 2026-05-06 13:33 | 47.89420 | 11.97163 | 20659 ft | 394 kts | 189° |
| 2026-05-06 13:34 | 47.86685 | 11.96720 | 21343 ft | 397 kts | 189° |
| 2026-05-06 13:34 | 47.83927 | 11.96273 | 22029 ft | 400 kts | 189° |
| 2026-05-06 13:34 | 47.81148 | 11.95823 | 22693 ft | 404 kts | 189° |
| 2026-05-06 13:34 | 47.78343 | 11.95371 | 23342 ft | 407 kts | 189° |
| 2026-05-06 13:35 | 47.75508 | 11.94915 | 23866 ft | 411 kts | 189° |
| 2026-05-06 13:35 | 47.72640 | 11.94597 | 24384 ft | 416 kts | 186° |
| 2026-05-06 13:35 | 47.69769 | 11.94492 | 24925 ft | 420 kts | 185° |
| 2026-05-06 13:35 | 47.66841 | 11.94447 | 25421 ft | 421 kts | 185° |
| 2026-05-06 13:36 | 47.63900 | 11.94386 | 25902 ft | 424 kts | 185° |
| 2026-05-06 13:36 | 47.60945 | 11.94322 | 26419 ft | 426 kts | 185° |
| 2026-05-06 13:36 | 47.57970 | 11.94263 | 26943 ft | 429 kts | 185° |
| 2026-05-06 13:36 | 47.54964 | 11.94210 | 27426 ft | 433 kts | 185° |
| 2026-05-06 13:37 | 47.51936 | 11.94152 | 27951 ft | 437 kts | 185° |
| 2026-05-06 13:37 | 47.48881 | 11.94097 | 28501 ft | 440 kts | 185° |
| 2026-05-06 13:37 | 47.45825 | 11.94027 | 29216 ft | 437 kts | 186° |
| 2026-05-06 13:37 | 47.42805 | 11.93778 | 30055 ft | 430 kts | 189° |
| 2026-05-06 13:38 | 47.39850 | 11.93334 | 30798 ft | 424 kts | 192° |
| 2026-05-06 13:38 | 47.36938 | 11.92747 | 31449 ft | 421 kts | 193° |
| 2026-05-06 13:38 | 47.34028 | 11.92173 | 32029 ft | 422 kts | 193° |
| 2026-05-06 13:38 | 47.31114 | 11.91597 | 32477 ft | 424 kts | 193° |
| 2026-05-06 13:39 | 47.28231 | 11.91027 | 32756 ft | 424 kts | 193° |
| 2026-05-06 13:39 | 47.22381 | 11.89868 | 32778 ft | 424 kts | 193° |
| 2026-05-06 13:40 | 47.16530 | 11.88707 | 32790 ft | 424 kts | 193° |
| 2026-05-06 13:40 | 47.10722 | 11.87303 | 32783 ft | 419 kts | 201° |
| 2026-05-06 13:41 | 47.05464 | 11.83852 | 32792 ft | 412 kts | 214° |
| 2026-05-06 13:41 | 47.01003 | 11.78604 | 32840 ft | 411 kts | 223° |
| 2026-05-06 13:42 | 46.96838 | 11.72941 | 32842 ft | 411 kts | 223° |
| 2026-05-06 13:42 | 46.92665 | 11.67247 | 32837 ft | 409 kts | 223° |
| 2026-05-06 13:43 | 46.88482 | 11.61541 | 32827 ft | 409 kts | 223° |
| 2026-05-06 13:43 | 46.84313 | 11.55859 | 32841 ft | 409 kts | 223° |
| 2026-05-06 13:44 | 46.80140 | 11.50179 | 32851 ft | 410 kts | 223° |
| 2026-05-06 13:44 | 46.75964 | 11.44505 | 32885 ft | 410 kts | 223° |
| 2026-05-06 13:45 | 46.71810 | 11.38874 | 32874 ft | 406 kts | 223° |
| 2026-05-06 13:45 | 46.65608 | 11.30494 | 32862 ft | 407 kts | 223° |
| 2026-05-06 13:46 | 46.61457 | 11.24900 | 32866 ft | 406 kts | 223° |
| 2026-05-06 13:46 | 46.57297 | 11.19308 | 32882 ft | 406 kts | 223° |
| 2026-05-06 13:47 | 46.53161 | 11.13765 | 32894 ft | 407 kts | 223° |
| 2026-05-06 13:47 | 46.48989 | 11.08175 | 32880 ft | 406 kts | 222° |
| 2026-05-06 13:48 | 46.44828 | 11.02616 | 32883 ft | 407 kts | 222° |
| 2026-05-06 13:48 | 46.40651 | 10.97048 | 32880 ft | 408 kts | 222° |
| 2026-05-06 13:49 | 46.36472 | 10.91487 | 32952 ft | 407 kts | 222° |
| 2026-05-06 13:49 | 46.32295 | 10.85941 | 32979 ft | 406 kts | 222° |
| 2026-05-06 13:50 | 46.28171 | 10.80477 | 32943 ft | 404 kts | 222° |
| 2026-05-06 13:50 | 46.24021 | 10.74989 | 32919 ft | 404 kts | 222° |
| 2026-05-06 13:51 | 46.19868 | 10.69510 | 32919 ft | 404 kts | 222° |
| 2026-05-06 13:51 | 46.15706 | 10.64034 | 32897 ft | 404 kts | 222° |
| 2026-05-06 13:52 | 46.11547 | 10.58571 | 32896 ft | 404 kts | 222° |
| 2026-05-06 13:52 | 46.07408 | 10.53144 | 32905 ft | 404 kts | 222° |
| 2026-05-06 13:53 | 46.03254 | 10.47713 | 32901 ft | 403 kts | 222° |
| 2026-05-06 13:53 | 45.99098 | 10.42287 | 32891 ft | 402 kts | 222° |
| 2026-05-06 13:54 | 45.94944 | 10.36876 | 32886 ft | 402 kts | 222° |
| 2026-05-06 13:54 | 45.90785 | 10.31471 | 32886 ft | 403 kts | 222° |
| 2026-05-06 13:55 | 45.86658 | 10.26117 | 32885 ft | 401 kts | 222° |
| 2026-05-06 13:55 | 45.82508 | 10.20745 | 32883 ft | 401 kts | 221° |
| 2026-05-06 13:56 | 45.78360 | 10.15389 | 32876 ft | 400 kts | 221° |
| 2026-05-06 13:56 | 45.74212 | 10.10043 | 32878 ft | 400 kts | 221° |
| 2026-05-06 13:57 | 45.70088 | 10.04737 | 32863 ft | 401 kts | 221° |
| 2026-05-06 13:57 | 45.65925 | 9.99393 | 32866 ft | 402 kts | 221° |
| 2026-05-06 13:58 | 45.61759 | 9.94054 | 32860 ft | 402 kts | 221° |
| 2026-05-06 13:58 | 45.58286 | 9.89612 | 32857 ft | 402 kts | 221° |
| 2026-05-06 13:59 | 45.54117 | 9.84292 | 32836 ft | 402 kts | 221° |
| 2026-05-06 13:59 | 45.49922 | 9.78951 | 32856 ft | 404 kts | 221° |
| 2026-05-06 14:00 | 45.47823 | 9.76282 | 32989 ft | 405 kts | 221° |
| 2026-05-06 14:00 | 45.45720 | 9.73610 | 33014 ft | 404 kts | 221° |
| 2026-05-06 14:00 | 45.41520 | 9.68281 | 33001 ft | 404 kts | 221° |
| 2026-05-06 14:01 | 45.37311 | 9.62957 | 32989 ft | 404 kts | 221° |
| 2026-05-06 14:01 | 45.33125 | 9.57673 | 32958 ft | 405 kts | 221° |
| 2026-05-06 14:02 | 45.28908 | 9.52358 | 32922 ft | 405 kts | 221° |
| 2026-05-06 14:02 | 45.24688 | 9.47050 | 32881 ft | 405 kts | 221° |
| 2026-05-06 14:03 | 45.20463 | 9.41747 | 32836 ft | 405 kts | 221° |
| 2026-05-06 14:03 | 45.16260 | 9.36484 | 32826 ft | 405 kts | 221° |
| 2026-05-06 14:04 | 45.12029 | 9.31195 | 32824 ft | 405 kts | 221° |
| 2026-05-06 14:04 | 45.07792 | 9.25910 | 32823 ft | 405 kts | 221° |
| 2026-05-06 14:05 | 45.03550 | 9.20628 | 32853 ft | 405 kts | 221° |
| 2026-05-06 14:05 | 44.99342 | 9.15402 | 32820 ft | 404 kts | 221° |
| 2026-05-06 14:06 | 44.95115 | 9.10163 | 32823 ft | 404 kts | 221° |
| 2026-05-06 14:06 | 44.90881 | 9.04926 | 32824 ft | 404 kts | 221° |
| 2026-05-06 14:07 | 44.86646 | 8.99695 | 32820 ft | 404 kts | 221° |
| 2026-05-06 14:07 | 44.82406 | 8.94471 | 32809 ft | 404 kts | 221° |
| 2026-05-06 14:08 | 44.78163 | 8.89254 | 32827 ft | 404 kts | 221° |
| 2026-05-06 14:08 | 44.73919 | 8.84045 | 32832 ft | 404 kts | 221° |
| 2026-05-06 14:09 | 44.69672 | 8.78844 | 32839 ft | 404 kts | 221° |
| 2026-05-06 14:09 | 44.65426 | 8.73655 | 32841 ft | 404 kts | 221° |
| 2026-05-06 14:10 | 44.61212 | 8.68515 | 32878 ft | 403 kts | 221° |
| 2026-05-06 14:10 | 44.56972 | 8.63353 | 32861 ft | 402 kts | 221° |
| 2026-05-06 14:11 | 44.52757 | 8.58230 | 32612 ft | 396 kts | 221° |
| 2026-05-06 14:11 | 44.50667 | 8.55695 | 31679 ft | 400 kts | 221° |
| 2026-05-06 14:11 | 44.48536 | 8.53110 | 30605 ft | 408 kts | 221° |
| 2026-05-06 14:12 | 44.46377 | 8.50493 | 29691 ft | 411 kts | 220° |
| 2026-05-06 14:12 | 44.44204 | 8.47867 | 28719 ft | 413 kts | 221° |
| 2026-05-06 14:12 | 44.42053 | 8.45270 | 27901 ft | 412 kts | 221° |
| 2026-05-06 14:12 | 44.39896 | 8.42667 | 27263 ft | 406 kts | 221° |
| 2026-05-06 14:13 | 44.37773 | 8.40106 | 26813 ft | 399 kts | 221° |
| 2026-05-06 14:13 | 44.35685 | 8.37590 | 26339 ft | 393 kts | 221° |
| 2026-05-06 14:13 | 44.33623 | 8.35108 | 25884 ft | 387 kts | 221° |
| 2026-05-06 14:13 | 44.31679 | 8.32547 | 25451 ft | 382 kts | 225° |
| 2026-05-06 14:14 | 44.29883 | 8.29831 | 25006 ft | 378 kts | 229° |
| 2026-05-06 14:14 | 44.28236 | 8.26994 | 24576 ft | 374 kts | 232° |
| 2026-05-06 14:14 | 44.26727 | 8.24048 | 24143 ft | 371 kts | 234° |
| 2026-05-06 14:14 | 44.25255 | 8.21102 | 23748 ft | 368 kts | 234° |
| 2026-05-06 14:15 | 44.23794 | 8.18175 | 23346 ft | 366 kts | 234° |
| 2026-05-06 14:15 | 44.22363 | 8.15301 | 22877 ft | 363 kts | 234° |
| 2026-05-06 14:15 | 44.20925 | 8.12414 | 22434 ft | 359 kts | 234° |
| 2026-05-06 14:15 | 44.19506 | 8.09563 | 22013 ft | 356 kts | 234° |
| 2026-05-06 14:16 | 44.18096 | 8.06728 | 21594 ft | 354 kts | 234° |
| 2026-05-06 14:16 | 44.16696 | 8.03918 | 21195 ft | 353 kts | 234° |
| 2026-05-06 14:16 | 44.15298 | 8.01107 | 20770 ft | 352 kts | 234° |
| 2026-05-06 14:16 | 44.13898 | 7.98318 | 20321 ft | 350 kts | 234° |
| 2026-05-06 14:17 | 44.12504 | 7.95529 | 19954 ft | 349 kts | 234° |
| 2026-05-06 14:17 | 44.11120 | 7.92766 | 19535 ft | 347 kts | 234° |
| 2026-05-06 14:17 | 44.09741 | 7.90012 | 19103 ft | 345 kts | 234° |
| 2026-05-06 14:17 | 44.08369 | 7.87276 | 18698 ft | 344 kts | 235° |
| 2026-05-06 14:18 | 44.07017 | 7.84580 | 18287 ft | 342 kts | 235° |
| 2026-05-06 14:18 | 44.05651 | 7.81858 | 17852 ft | 343 kts | 235° |
| 2026-05-06 14:18 | 44.04279 | 7.79131 | 17390 ft | 345 kts | 235° |
| 2026-05-06 14:18 | 44.02905 | 7.76403 | 16927 ft | 343 kts | 235° |
| 2026-05-06 14:19 | 44.01524 | 7.73657 | 16636 ft | 354 kts | 235° |
| 2026-05-06 14:19 | 44.00086 | 7.70806 | 16647 ft | 363 kts | 235° |
| 2026-05-06 14:19 | 43.98632 | 7.67925 | 16658 ft | 365 kts | 235° |
| 2026-05-06 14:19 | 43.97175 | 7.65028 | 16392 ft | 364 kts | 235° |
| 2026-05-06 14:20 | 43.95721 | 7.62152 | 16052 ft | 363 kts | 235° |
| 2026-05-06 14:20 | 43.94277 | 7.59296 | 15668 ft | 358 kts | 235° |
| 2026-05-06 14:20 | 43.92858 | 7.56493 | 15304 ft | 351 kts | 235° |
| 2026-05-06 14:20 | 43.91481 | 7.53774 | 14916 ft | 345 kts | 235° |
| 2026-05-06 14:21 | 43.90108 | 7.51067 | 14542 ft | 339 kts | 235° |
| 2026-05-06 14:21 | 43.88761 | 7.48408 | 14170 ft | 334 kts | 235° |
| 2026-05-06 14:21 | 43.87388 | 7.45840 | 13812 ft | 329 kts | 228° |
| 2026-05-06 14:21 | 43.85614 | 7.43860 | 13467 ft | 325 kts | 212° |
| 2026-05-06 14:22 | 43.83527 | 7.42695 | 13112 ft | 323 kts | 196° |
| 2026-05-06 14:22 | 43.81304 | 7.42386 | 12783 ft | 323 kts | 181° |
| 2026-05-06 14:22 | 43.79094 | 7.42949 | 12429 ft | 324 kts | 165° |
| 2026-05-06 14:22 | 43.77085 | 7.44352 | 12108 ft | 324 kts | 148° |
| 2026-05-06 14:23 | 43.75337 | 7.46220 | 11843 ft | 318 kts | 145° |
| 2026-05-06 14:23 | 43.73616 | 7.48161 | 11581 ft | 312 kts | 144° |
| 2026-05-06 14:23 | 43.71973 | 7.50011 | 11329 ft | 306 kts | 145° |
| 2026-05-06 14:23 | 43.70341 | 7.51851 | 11060 ft | 300 kts | 144° |
| 2026-05-06 14:24 | 43.68726 | 7.53665 | 10698 ft | 298 kts | 144° |
| 2026-05-06 14:24 | 43.67116 | 7.55466 | 10303 ft | 297 kts | 145° |
| 2026-05-06 14:24 | 43.65510 | 7.57266 | 9915 ft | 296 kts | 144° |
| 2026-05-06 14:24 | 43.63911 | 7.59051 | 9449 ft | 295 kts | 144° |
| 2026-05-06 14:25 | 43.62214 | 7.60563 | 8913 ft | 286 kts | 166° |
| 2026-05-06 14:25 | 43.60302 | 7.60710 | 8371 ft | 273 kts | 198° |
| 2026-05-06 14:25 | 43.58637 | 7.59604 | 7891 ft | 263 kts | 221° |
| 2026-05-06 14:25 | 43.57444 | 7.57749 | 7388 ft | 258 kts | 242° |
| 2026-05-06 14:26 | 43.56854 | 7.55444 | 6959 ft | 253 kts | 263° |
| 2026-05-06 14:26 | 43.56929 | 7.53065 | 6482 ft | 253 kts | 283° |
| 2026-05-06 14:26 | 43.57540 | 7.50782 | 6001 ft | 254 kts | 292° |
| 2026-05-06 14:26 | 43.58343 | 7.48603 | 5427 ft | 252 kts | 300° |
| 2026-05-06 14:27 | 43.59288 | 7.46648 | 5172 ft | 238 kts | 303° |
| 2026-05-06 14:27 | 43.60222 | 7.44829 | 4916 ft | 225 kts | 302° |
| 2026-05-06 14:27 | 43.61104 | 7.43112 | 4704 ft | 212 kts | 302° |
| 2026-05-06 14:27 | 43.61930 | 7.41495 | 4484 ft | 200 kts | 301° |
| 2026-05-06 14:28 | 43.62724 | 7.39942 | 3977 ft | 197 kts | 301° |
| 2026-05-06 14:28 | 43.63516 | 7.38385 | 3422 ft | 198 kts | 300° |
| 2026-05-06 14:28 | 43.64307 | 7.36831 | 2885 ft | 197 kts | 300° |
| 2026-05-06 14:28 | 43.65096 | 7.35277 | 2411 ft | 195 kts | 300° |
| 2026-05-06 14:29 | 43.65854 | 7.33780 | 2071 ft | 185 kts | 300° |
| 2026-05-06 14:29 | 43.66569 | 7.32384 | 1798 ft | 175 kts | 299° |
| 2026-05-06 14:29 | 43.67262 | 7.31028 | 1527 ft | 166 kts | 298° |
| 2026-05-06 14:29 | 43.67911 | 7.29758 | 1287 ft | 157 kts | 297° |
| 2026-05-06 14:30 | 43.68526 | 7.28545 | 1077 ft | 155 kts | 295° |
| 2026-05-06 14:30 | 43.68896 | 7.27198 | 856 ft | 144 kts | 267° |
| 2026-05-06 14:30 | 43.68785 | 7.25869 | 677 ft | 137 kts | 245° |
| 2026-05-06 14:30 | 43.68308 | 7.24760 | 485 ft | 137 kts | 226° |
| 2026-05-06 14:31 | 43.67652 | 7.23815 | 322 ft | 135 kts | 224° |
| 2026-05-06 14:31 | 43.66992 | 7.22896 | 118 ft | 134 kts | 223° |
| 2026-05-06 14:31 | 43.66352 | 7.22017 | 32 ft | 118 kts | 225° |
| 2026-05-06 14:31 | 43.65816 | 7.21282 | 31 ft | 83 kts | 225° |
| 2026-05-06 14:32 | 43.65554 | 7.20919 | 30 ft | 26 kts | 225° |
| 2026-05-06 14:32 | 43.65493 | 7.20836 | 29 ft | 10 kts | 225° |
| 2026-05-06 14:32 | 43.65479 | 7.20736 | 28 ft | 12 kts | 294° |
| 2026-05-06 14:32 | 43.65531 | 7.20691 | 29 ft | 7 kts | 349° |
| 2026-05-06 14:33 | 43.65573 | 7.20681 | 29 ft | 8 kts | 349° |
| 2026-05-06 14:33 | 43.65608 | 7.20671 | 28 ft | 5 kts | 347° |
| 2026-05-06 14:33 | 43.65639 | 7.20652 | 29 ft | 5 kts | 324° |
| 2026-05-06 14:33 | 43.65655 | 7.20632 | 29 ft | 3 kts | 314° |
| 2026-05-06 14:34 | 43.65678 | 7.20599 | 29 ft | 6 kts | 320° |
| 2026-05-06 14:34 | 43.65713 | 7.20590 | 29 ft | 6 kts | 16° |
| 2026-05-06 14:34 | 43.65755 | 7.20622 | 29 ft | 7 kts | 38° |
| 2026-05-06 14:34 | 43.65784 | 7.20663 | 29 ft | 6 kts | 47° |
| 2026-05-06 14:35 | 43.65808 | 7.20698 | 29 ft | 3 kts | 47° |
| 2026-05-06 14:35 | 43.65817 | 7.20709 | 29 ft | 1 kts | 29° |
| 2026-05-06 14:35 | 43.65833 | 7.20716 | 29 ft | 3 kts | 12° |
| 2026-05-06 14:35 | 43.65846 | 7.20716 | 30 ft | 2 kts | 353° |
| 2026-05-06 14:36 | 43.65862 | 7.20711 | 30 ft | 3 kts | 343° |
| 2026-05-06 14:36 | 43.65874 | 7.20705 | 30 ft | 1 kts | 340° |
| 2026-05-06 14:36 | 43.65886 | 7.20699 | 30 ft | 2 kts | 340° |
| 2026-05-06 14:36 | 43.65896 | 7.20695 | 30 ft | 1 kts | 340° |
| 2026-05-06 14:37 | 43.65900 | 7.20692 | 34 ft | 0 kts | 340° |
| 2026-05-06 14:37 | 43.65904 | 7.20690 | 35 ft | 1 kts | 340° |
| 2026-05-06 14:37 | 43.65908 | 7.20688 | 40 ft | 0 kts | 340° |